»·PEaware :: N6794H KBFL-KMHV

N6794H :: KBFL-KMHV

FLIGHT INFORMATION

Flight Status: Arrived
Operator: Privately registered:
United States
More flights under this callsign
Pilot: Austin B. (17780)
Aircraft: CESSNA 172 SKYHAWK
(C172)
More flights by this aircraft type
Origin: KBFL Meadows
United States
Destination: KMHV Mojave
United States
More flights between these airports :: More routes between these airports
Route:
File this flight plan on PilotEdge
Remarks: New to pilot edge / CAT-06
Altitude:
(Current/Filed)
7,500ft
Speed:
(Current/Filed)
110kts
Departed: 05-Jan-18 05:13 PM
Arrived: 05-Jan-18 05:45 PM
Distance/Time
Traveled:
50nm/0:32
Distance/Time
To Go:
Arrived

Flight Plot

Page will automatically refresh every two minutes.


Map Options




Map Legend


Flown Route
Filed Route
Departure Airport
Arrival Airport
Navaid (VOR, NDB)
Fix

Horizontal Profiles

Position Reports

Time Latitude Longitude Heading Altitude Ground
Speed
05-Jan-18 17:06 35.429367 -119.046106 226 510ft 0kts
05-Jan-18 17:07 35.429367 -119.046106 226 510ft 0kts
05-Jan-18 17:08 35.429367 -119.046106 226 510ft 0kts
05-Jan-18 17:09 35.429367 -119.046106 226 510ft 0kts
05-Jan-18 17:10 35.429367 -119.046106 226 510ft 0kts
05-Jan-18 17:11 35.429367 -119.046106 226 510ft 0kts
05-Jan-18 17:12 35.429367 -119.046106 226 510ft 0kts
05-Jan-18 17:13 35.429367 -119.046106 226 510ft 0kts
05-Jan-18 17:14 35.428703 -119.046924 230 510ft 7kts
05-Jan-18 17:15 35.426929 -119.045619 135 510ft 9kts
05-Jan-18 17:16 35.425819 -119.044662 209 510ft 3kts
05-Jan-18 17:17 35.425765 -119.044719 225 510ft 0kts
05-Jan-18 17:18 35.425765 -119.044719 225 510ft 0kts
05-Jan-18 17:19 35.427579 -119.048627 315 510ft 64kts
05-Jan-18 17:20 35.444584 -119.063999 6 1391ft 82kts
05-Jan-18 17:21 35.442733 -119.044467 134 2363ft 78kts
05-Jan-18 17:22 35.427481 -119.020507 126 3131ft 92kts
05-Jan-18 17:23 35.412595 -118.996204 126 4026ft 86kts
05-Jan-18 17:24 35.399510 -118.973993 120 4879ft 78kts
05-Jan-18 17:25 35.387560 -118.948361 117 5517ft 95kts
05-Jan-18 17:26 35.374928 -118.919149 116 6209ft 95kts
05-Jan-18 17:27 35.363519 -118.891576 115 6984ft 88kts
05-Jan-18 17:28 35.351902 -118.863251 116 7506ft 106kts
05-Jan-18 17:29 35.337147 -118.827362 115 7500ft 116kts
05-Jan-18 17:30 35.323172 -118.792871 115 7502ft 113kts
05-Jan-18 17:31 35.309074 -118.758305 115 7514ft 113kts
05-Jan-18 17:32 35.294903 -118.723677 115 7526ft 114kts
05-Jan-18 17:33 35.280662 -118.688826 115 7538ft 115kts
05-Jan-18 17:34 35.266863 -118.653412 115 7550ft 115kts
05-Jan-18 17:35 35.252534 -118.618177 116 7562ft 116kts
05-Jan-18 17:36 35.237981 -118.582855 117 7574ft 117kts
05-Jan-18 17:37 35.223232 -118.547133 117 7584ft 118kts
05-Jan-18 17:38 35.208363 -118.511162 117 7584ft 118kts
05-Jan-18 17:39 35.193468 -118.475165 117 7584ft 119kts
05-Jan-18 17:40 35.178418 -118.438838 117 7566ft 120kts
05-Jan-18 17:41 35.163434 -118.402701 117 7566ft 119kts
05-Jan-18 17:42 35.148449 -118.366603 117 7566ft 119kts
05-Jan-18 17:43 35.133652 -118.330996 118 7564ft 118kts
05-Jan-18 17:44 35.118677 -118.294997 118 7558ft 118kts
05-Jan-18 17:45 35.103443 -118.258537 118 7019ft 125kts
05-Jan-18 17:46 35.088356 -118.222493 118 6011ft 114kts
05-Jan-18 17:47 35.074748 -118.190115 124 4808ft 105kts
05-Jan-18 17:48 35.058669 -118.162218 134 3847ft 89kts
05-Jan-18 17:49 35.042530 -118.141035 140 3853ft 84kts
05-Jan-18 17:50 35.037847 -118.121797 325 3361ft 62kts
05-Jan-18 17:51 35.048822 -118.135702 312 2795ft 36kts
05-Jan-18 17:52 35.053781 -118.141828 315 2795ft 20kts
05-Jan-18 17:53 35.057437 -118.146261 305 2795ft 16kts
05-Jan-18 17:54 35.057587 -118.147792 270 2795ft 0kts
05-Jan-18 17:55 35.057588 -118.147911 270 2795ft 2kts
05-Jan-18 17:56 35.057600 -118.149787 268 2795ft 9kts
05-Jan-18 17:57 35.056860 -118.150680 82 2795ft 0kts
05-Jan-18 17:58 35.056860 -118.150680 82 2795ft 0kts
05-Jan-18 17:59 35.056860 -118.150680 82 2795ft 0kts
05-Jan-18 18:00 35.056860 -118.150680 82 2795ft 0kts
05-Jan-18 18:01 35.056860 -118.150680 82 2795ft 0kts
05-Jan-18 18:02 35.056860 -118.150680 82 2795ft 0kts
05-Jan-18 18:03 35.056860 -118.150680 82 2795ft 0kts
05-Jan-18 18:04 35.056860 -118.150680 82 2795ft 0kts
05-Jan-18 18:05 35.056860 -118.150680 82 2795ft 0kts

Navigation Log

Ident Type
1. KBFL Airport
2. KMHV Airport